JKK622 LEMG-LEMD
Flight info
| Callsign | JKK622 |
|---|---|
| Flight time | 0h 59m |
| Altitude | 32000 |
| Route | BLN DCT MORAL |
| Aircraft | MD83/M-SDFGIRWY/S |
Departure
| Time | 2026-05-07 14:54 |
|---|---|
| Airport | Málaga-Costa del Sol Airport (LEMG) |
Arrival
| Time | 2026-05-07 15:53 |
|---|---|
| Airport | Adolfo Suárez Madrid–Barajas Airport (LEMD) |
| Time | Latitude | Longitude | Altitude | Speed | Heading |
|---|---|---|---|---|---|
| 2026-05-07 14:21 | 36.67586 | -4.49311 | 41 ft | 0 kts | 116° |
| 2026-05-07 14:22 | 36.67585 | -4.49308 | 43 ft | 0 kts | 116° |
| 2026-05-07 14:45 | 36.67588 | -4.49317 | 42 ft | 4 kts | 112° |
| 2026-05-07 14:45 | 36.67593 | -4.49346 | 41 ft | 4 kts | 79° |
| 2026-05-07 14:45 | 36.67586 | -4.49372 | 39 ft | 4 kts | 66° |
| 2026-05-07 14:46 | 36.67572 | -4.49399 | 38 ft | 4 kts | 50° |
| 2026-05-07 14:46 | 36.67558 | -4.49420 | 38 ft | 4 kts | 48° |
| 2026-05-07 14:46 | 36.67539 | -4.49444 | 42 ft | 4 kts | 41° |
| 2026-05-07 14:46 | 36.67520 | -4.49463 | 41 ft | 4 kts | 33° |
| 2026-05-07 14:47 | 36.67500 | -4.49472 | 38 ft | 4 kts | 348° |
| 2026-05-07 14:47 | 36.67479 | -4.49459 | 38 ft | 3 kts | 322° |
| 2026-05-07 14:47 | 36.67460 | -4.49436 | 38 ft | 4 kts | 310° |
| 2026-05-07 14:47 | 36.67450 | -4.49421 | 38 ft | 0 kts | 310° |
| 2026-05-07 14:50 | 36.67457 | -4.49451 | 40 ft | 8 kts | 265° |
| 2026-05-07 14:50 | 36.67444 | -4.49543 | 43 ft | 16 kts | 299° |
| 2026-05-07 14:50 | 36.67534 | -4.49674 | 44 ft | 22 kts | 311° |
| 2026-05-07 14:50 | 36.67633 | -4.49814 | 44 ft | 22 kts | 311° |
| 2026-05-07 14:51 | 36.67733 | -4.49953 | 44 ft | 22 kts | 311° |
| 2026-05-07 14:51 | 36.67832 | -4.50093 | 45 ft | 22 kts | 311° |
| 2026-05-07 14:51 | 36.67931 | -4.50231 | 45 ft | 21 kts | 311° |
| 2026-05-07 14:51 | 36.68030 | -4.50371 | 44 ft | 22 kts | 311° |
| 2026-05-07 14:52 | 36.68133 | -4.50514 | 44 ft | 22 kts | 311° |
| 2026-05-07 14:52 | 36.68233 | -4.50655 | 46 ft | 22 kts | 311° |
| 2026-05-07 14:52 | 36.68331 | -4.50791 | 49 ft | 20 kts | 311° |
| 2026-05-07 14:52 | 36.68422 | -4.50919 | 51 ft | 19 kts | 311° |
| 2026-05-07 14:53 | 36.68497 | -4.51044 | 55 ft | 17 kts | 284° |
| 2026-05-07 14:53 | 36.68478 | -4.51170 | 57 ft | 13 kts | 242° |
| 2026-05-07 14:53 | 36.68412 | -4.51194 | 56 ft | 12 kts | 146° |
| 2026-05-07 14:53 | 36.68310 | -4.51054 | 57 ft | 40 kts | 132° |
| 2026-05-07 14:54 | 36.67983 | -4.50596 | 55 ft | 102 kts | 131° |
| 2026-05-07 14:54 | 36.67397 | -4.49768 | 57 ft | 154 kts | 131° |
| 2026-05-07 14:54 | 36.66665 | -4.48761 | 654 ft | 154 kts | 132° |
| 2026-05-07 14:54 | 36.66160 | -4.48103 | 1069 ft | 163 kts | 136° |
| 2026-05-07 14:55 | 36.65035 | -4.46636 | 1564 ft | 190 kts | 133° |
| 2026-05-07 14:55 | 36.64450 | -4.45797 | 1909 ft | 200 kts | 132° |
| 2026-05-07 14:55 | 36.63493 | -4.44388 | 2276 ft | 224 kts | 132° |
| 2026-05-07 14:55 | 36.62055 | -4.42311 | 2918 ft | 250 kts | 133° |
| 2026-05-07 14:56 | 36.61287 | -4.41217 | 3401 ft | 253 kts | 133° |
| 2026-05-07 14:56 | 36.60183 | -4.39477 | 4223 ft | 258 kts | 121° |
| 2026-05-07 14:56 | 36.59588 | -4.37428 | 5285 ft | 248 kts | 104° |
| 2026-05-07 14:56 | 36.59224 | -4.35347 | 6164 ft | 246 kts | 103° |
| 2026-05-07 14:57 | 36.58874 | -4.33263 | 6857 ft | 249 kts | 102° |
| 2026-05-07 14:57 | 36.58553 | -4.31114 | 7515 ft | 255 kts | 96° |
| 2026-05-07 14:57 | 36.58630 | -4.28913 | 8207 ft | 259 kts | 77° |
| 2026-05-07 14:57 | 36.59266 | -4.26724 | 8491 ft | 281 kts | 59° |
| 2026-05-07 14:58 | 36.60358 | -4.24739 | 9325 ft | 275 kts | 51° |
| 2026-05-07 14:58 | 36.61544 | -4.22862 | 9955 ft | 279 kts | 48° |
| 2026-05-07 14:58 | 36.62942 | -4.21187 | 10595 ft | 279 kts | 32° |
| 2026-05-07 14:58 | 36.64635 | -4.20052 | 11041 ft | 283 kts | 18° |
| 2026-05-07 14:59 | 36.66559 | -4.19225 | 11195 ft | 302 kts | 14° |
| 2026-05-07 14:59 | 36.68636 | -4.18425 | 11389 ft | 320 kts | 14° |
| 2026-05-07 14:59 | 36.70833 | -4.17601 | 11586 ft | 338 kts | 14° |
| 2026-05-07 14:59 | 36.73115 | -4.16760 | 11765 ft | 354 kts | 14° |
| 2026-05-07 15:00 | 36.75546 | -4.15878 | 12046 ft | 368 kts | 14° |
| 2026-05-07 15:00 | 36.78019 | -4.14964 | 12661 ft | 371 kts | 14° |
| 2026-05-07 15:00 | 36.80473 | -4.14028 | 13356 ft | 372 kts | 14° |
| 2026-05-07 15:00 | 36.82958 | -4.13063 | 13979 ft | 375 kts | 14° |
| 2026-05-07 15:01 | 36.85463 | -4.12083 | 14521 ft | 379 kts | 14° |
| 2026-05-07 15:01 | 36.87992 | -4.11079 | 15061 ft | 382 kts | 13° |
| 2026-05-07 15:01 | 36.90544 | -4.10060 | 15600 ft | 386 kts | 13° |
| 2026-05-07 15:01 | 36.93114 | -4.09037 | 16225 ft | 388 kts | 13° |
| 2026-05-07 15:02 | 36.95658 | -4.08033 | 16897 ft | 388 kts | 13° |
| 2026-05-07 15:02 | 36.98251 | -4.07008 | 17433 ft | 392 kts | 12° |
| 2026-05-07 15:02 | 37.00848 | -4.05985 | 17936 ft | 395 kts | 12° |
| 2026-05-07 15:02 | 37.03488 | -4.04946 | 18484 ft | 397 kts | 11° |
| 2026-05-07 15:03 | 37.06116 | -4.03915 | 18928 ft | 400 kts | 11° |
| 2026-05-07 15:03 | 37.08804 | -4.02860 | 19394 ft | 404 kts | 11° |
| 2026-05-07 15:03 | 37.11498 | -4.01804 | 19858 ft | 407 kts | 11° |
| 2026-05-07 15:03 | 37.14220 | -4.00734 | 20319 ft | 410 kts | 11° |
| 2026-05-07 15:04 | 37.16927 | -3.99669 | 20773 ft | 414 kts | 11° |
| 2026-05-07 15:04 | 37.19689 | -3.98592 | 21293 ft | 415 kts | 10° |
| 2026-05-07 15:04 | 37.22458 | -3.97539 | 21717 ft | 418 kts | 10° |
| 2026-05-07 15:04 | 37.25268 | -3.96489 | 22176 ft | 421 kts | 9° |
| 2026-05-07 15:05 | 37.28060 | -3.95451 | 22623 ft | 424 kts | 9° |
| 2026-05-07 15:05 | 37.30913 | -3.94392 | 23064 ft | 428 kts | 9° |
| 2026-05-07 15:05 | 37.33793 | -3.93324 | 23493 ft | 432 kts | 9° |
| 2026-05-07 15:05 | 37.36688 | -3.92247 | 23851 ft | 435 kts | 9° |
| 2026-05-07 15:06 | 37.39558 | -3.91174 | 24276 ft | 436 kts | 9° |
| 2026-05-07 15:06 | 37.42477 | -3.90076 | 24735 ft | 437 kts | 9° |
| 2026-05-07 15:06 | 37.45401 | -3.88971 | 25170 ft | 437 kts | 8° |
| 2026-05-07 15:06 | 37.48325 | -3.87870 | 25523 ft | 440 kts | 8° |
| 2026-05-07 15:07 | 37.51248 | -3.86773 | 25845 ft | 444 kts | 8° |
| 2026-05-07 15:07 | 37.54233 | -3.85653 | 26289 ft | 445 kts | 8° |
| 2026-05-07 15:07 | 37.57187 | -3.84541 | 26625 ft | 448 kts | 8° |
| 2026-05-07 15:07 | 37.60195 | -3.83408 | 27033 ft | 449 kts | 8° |
| 2026-05-07 15:08 | 37.63155 | -3.82292 | 27472 ft | 448 kts | 8° |
| 2026-05-07 15:08 | 37.66121 | -3.81153 | 28257 ft | 441 kts | 8° |
| 2026-05-07 15:08 | 37.69031 | -3.80030 | 29025 ft | 433 kts | 8° |
| 2026-05-07 15:08 | 37.71921 | -3.78933 | 29528 ft | 432 kts | 7° |
| 2026-05-07 15:09 | 37.74787 | -3.77860 | 29812 ft | 434 kts | 7° |
| 2026-05-07 15:09 | 37.77696 | -3.76770 | 30192 ft | 433 kts | 7° |
| 2026-05-07 15:09 | 37.80557 | -3.75692 | 30571 ft | 432 kts | 7° |
| 2026-05-07 15:09 | 37.83435 | -3.74603 | 30932 ft | 431 kts | 7° |
| 2026-05-07 15:10 | 37.86316 | -3.73511 | 31270 ft | 430 kts | 7° |
| 2026-05-07 15:10 | 37.89185 | -3.72423 | 31576 ft | 430 kts | 6° |
| 2026-05-07 15:10 | 37.92064 | -3.71330 | 31771 ft | 433 kts | 6° |
| 2026-05-07 15:10 | 37.94969 | -3.70231 | 31840 ft | 438 kts | 6° |
| 2026-05-07 15:11 | 38.00877 | -3.67998 | 31882 ft | 450 kts | 7° |
| 2026-05-07 15:11 | 38.06900 | -3.65696 | 31910 ft | 450 kts | 7° |
| 2026-05-07 15:12 | 38.12858 | -3.63403 | 31913 ft | 448 kts | 7° |
| 2026-05-07 15:12 | 38.15847 | -3.62383 | 31937 ft | 437 kts | 360° |
| 2026-05-07 15:12 | 38.18847 | -3.61922 | 31915 ft | 428 kts | 355° |
| 2026-05-07 15:13 | 38.24747 | -3.61465 | 31915 ft | 427 kts | 353° |
| 2026-05-07 15:13 | 38.30670 | -3.61015 | 31912 ft | 428 kts | 354° |
| 2026-05-07 15:14 | 38.36637 | -3.60476 | 31912 ft | 430 kts | 355° |
| 2026-05-07 15:14 | 38.42585 | -3.59878 | 31910 ft | 430 kts | 355° |
| 2026-05-07 15:15 | 38.48557 | -3.59285 | 31915 ft | 429 kts | 355° |
| 2026-05-07 15:15 | 38.54490 | -3.58696 | 31915 ft | 429 kts | 355° |
| 2026-05-07 15:16 | 38.60452 | -3.58114 | 31942 ft | 430 kts | 355° |
| 2026-05-07 15:16 | 38.66430 | -3.57528 | 31916 ft | 429 kts | 355° |
| 2026-05-07 15:17 | 38.72345 | -3.56941 | 31913 ft | 427 kts | 355° |
| 2026-05-07 15:17 | 38.78258 | -3.56361 | 31913 ft | 428 kts | 355° |
| 2026-05-07 15:18 | 38.84229 | -3.55778 | 31956 ft | 429 kts | 355° |
| 2026-05-07 15:18 | 38.90164 | -3.55202 | 31913 ft | 430 kts | 355° |
| 2026-05-07 15:19 | 38.96114 | -3.54610 | 31910 ft | 428 kts | 355° |
| 2026-05-07 15:19 | 38.99065 | -3.54582 | 31915 ft | 413 kts | 342° |
| 2026-05-07 15:19 | 39.01716 | -3.55641 | 31926 ft | 397 kts | 327° |
| 2026-05-07 15:20 | 39.06428 | -3.59215 | 31911 ft | 394 kts | 322° |
| 2026-05-07 15:20 | 39.11050 | -3.63087 | 31917 ft | 396 kts | 321° |
| 2026-05-07 15:21 | 39.15667 | -3.66947 | 31906 ft | 397 kts | 322° |
| 2026-05-07 15:21 | 39.20322 | -3.70746 | 31902 ft | 398 kts | 322° |
| 2026-05-07 15:22 | 39.25024 | -3.74542 | 31905 ft | 397 kts | 322° |
| 2026-05-07 15:22 | 39.29679 | -3.78309 | 31937 ft | 396 kts | 323° |
| 2026-05-07 15:23 | 39.34375 | -3.82132 | 31901 ft | 401 kts | 323° |
| 2026-05-07 15:23 | 39.39066 | -3.85945 | 31895 ft | 395 kts | 322° |
| 2026-05-07 15:24 | 39.43680 | -3.89719 | 31894 ft | 392 kts | 322° |
| 2026-05-07 15:24 | 39.48277 | -3.93489 | 31898 ft | 394 kts | 322° |
| 2026-05-07 15:25 | 39.52933 | -3.97309 | 31918 ft | 394 kts | 323° |
| 2026-05-07 15:25 | 39.55220 | -3.99185 | 31578 ft | 393 kts | 323° |
| 2026-05-07 15:25 | 39.57507 | -4.01067 | 31165 ft | 384 kts | 323° |
| 2026-05-07 15:26 | 39.59750 | -4.02920 | 30951 ft | 379 kts | 323° |
| 2026-05-07 15:26 | 39.61947 | -4.04735 | 30803 ft | 376 kts | 323° |
| 2026-05-07 15:26 | 39.66354 | -4.08379 | 30644 ft | 377 kts | 323° |
| 2026-05-07 15:27 | 39.68592 | -4.10227 | 30481 ft | 382 kts | 323° |
| 2026-05-07 15:27 | 39.70854 | -4.12098 | 30236 ft | 385 kts | 323° |
| 2026-05-07 15:27 | 39.73086 | -4.13941 | 29997 ft | 382 kts | 323° |
| 2026-05-07 15:27 | 39.75331 | -4.15799 | 29734 ft | 382 kts | 323° |
| 2026-05-07 15:28 | 39.77580 | -4.17659 | 29456 ft | 382 kts | 324° |
| 2026-05-07 15:28 | 39.79797 | -4.19491 | 29174 ft | 382 kts | 324° |
| 2026-05-07 15:28 | 39.82052 | -4.21355 | 28892 ft | 382 kts | 324° |
| 2026-05-07 15:28 | 39.84298 | -4.23215 | 28616 ft | 381 kts | 324° |
| 2026-05-07 15:29 | 39.86517 | -4.25053 | 28336 ft | 381 kts | 324° |
| 2026-05-07 15:29 | 39.88755 | -4.26911 | 28063 ft | 381 kts | 324° |
| 2026-05-07 15:29 | 39.90992 | -4.28769 | 27793 ft | 380 kts | 324° |
| 2026-05-07 15:29 | 39.93168 | -4.30579 | 27533 ft | 380 kts | 324° |
| 2026-05-07 15:30 | 39.95431 | -4.32386 | 27283 ft | 383 kts | 332° |
| 2026-05-07 15:30 | 39.98017 | -4.33379 | 27032 ft | 396 kts | 352° |
| 2026-05-07 15:30 | 40.00815 | -4.33214 | 26783 ft | 406 kts | 5° |
| 2026-05-07 15:30 | 40.03615 | -4.32576 | 26515 ft | 407 kts | 7° |
| 2026-05-07 15:31 | 40.06356 | -4.31877 | 26260 ft | 406 kts | 7° |
| 2026-05-07 15:31 | 40.09120 | -4.31161 | 26004 ft | 404 kts | 7° |
| 2026-05-07 15:31 | 40.11880 | -4.30460 | 25757 ft | 403 kts | 7° |
| 2026-05-07 15:31 | 40.14633 | -4.29792 | 25512 ft | 402 kts | 7° |
| 2026-05-07 15:32 | 40.17395 | -4.29155 | 25263 ft | 401 kts | 7° |
| 2026-05-07 15:32 | 40.20149 | -4.28550 | 25025 ft | 402 kts | 7° |
| 2026-05-07 15:32 | 40.22918 | -4.27953 | 24788 ft | 402 kts | 7° |
| 2026-05-07 15:32 | 40.25684 | -4.27358 | 24541 ft | 402 kts | 7° |
| 2026-05-07 15:33 | 40.28412 | -4.26768 | 24311 ft | 401 kts | 7° |
| 2026-05-07 15:33 | 40.31175 | -4.26168 | 24081 ft | 400 kts | 7° |
| 2026-05-07 15:33 | 40.33920 | -4.25567 | 23845 ft | 400 kts | 8° |
| 2026-05-07 15:33 | 40.36669 | -4.24981 | 23613 ft | 399 kts | 5° |
| 2026-05-07 15:34 | 40.39401 | -4.24796 | 23370 ft | 397 kts | 358° |
| 2026-05-07 15:34 | 40.42186 | -4.24885 | 23099 ft | 400 kts | 357° |
| 2026-05-07 15:34 | 40.44949 | -4.25037 | 22828 ft | 400 kts | 356° |
| 2026-05-07 15:34 | 40.47734 | -4.25188 | 22551 ft | 399 kts | 356° |
| 2026-05-07 15:35 | 40.50480 | -4.25324 | 22287 ft | 396 kts | 357° |
| 2026-05-07 15:35 | 40.53244 | -4.25449 | 22020 ft | 394 kts | 357° |
| 2026-05-07 15:35 | 40.55986 | -4.25547 | 21752 ft | 393 kts | 357° |
| 2026-05-07 15:35 | 40.58680 | -4.25631 | 21495 ft | 391 kts | 358° |
| 2026-05-07 15:36 | 40.61390 | -4.25705 | 21226 ft | 383 kts | 357° |
| 2026-05-07 15:36 | 40.64019 | -4.25770 | 20958 ft | 372 kts | 357° |
| 2026-05-07 15:36 | 40.66577 | -4.25840 | 20709 ft | 361 kts | 356° |
| 2026-05-07 15:36 | 40.69015 | -4.25904 | 20443 ft | 345 kts | 357° |
| 2026-05-07 15:37 | 40.71371 | -4.25877 | 20172 ft | 330 kts | 7° |
| 2026-05-07 15:37 | 40.73523 | -4.25090 | 19949 ft | 323 kts | 24° |
| 2026-05-07 15:37 | 40.75497 | -4.23558 | 19718 ft | 331 kts | 39° |
| 2026-05-07 15:37 | 40.77064 | -4.21404 | 19473 ft | 327 kts | 58° |
| 2026-05-07 15:38 | 40.78193 | -4.18798 | 19229 ft | 326 kts | 64° |
| 2026-05-07 15:38 | 40.79268 | -4.16136 | 18983 ft | 327 kts | 62° |
| 2026-05-07 15:38 | 40.80383 | -4.13558 | 18737 ft | 325 kts | 60° |
| 2026-05-07 15:38 | 40.81554 | -4.11011 | 18510 ft | 323 kts | 58° |
| 2026-05-07 15:39 | 40.82759 | -4.08511 | 18273 ft | 320 kts | 57° |
| 2026-05-07 15:39 | 40.83973 | -4.06090 | 18008 ft | 318 kts | 56° |
| 2026-05-07 15:39 | 40.85218 | -4.03678 | 17737 ft | 316 kts | 56° |
| 2026-05-07 15:39 | 40.86472 | -4.01293 | 17462 ft | 313 kts | 55° |
| 2026-05-07 15:40 | 40.87722 | -3.98935 | 17106 ft | 312 kts | 55° |
| 2026-05-07 15:40 | 40.88948 | -3.96630 | 16769 ft | 308 kts | 55° |
| 2026-05-07 15:40 | 40.90170 | -3.94334 | 16334 ft | 300 kts | 55° |
| 2026-05-07 15:40 | 40.91352 | -3.92104 | 15807 ft | 297 kts | 56° |
| 2026-05-07 15:41 | 40.92535 | -3.89867 | 15289 ft | 293 kts | 55° |
| 2026-05-07 15:41 | 40.93696 | -3.87666 | 14657 ft | 294 kts | 56° |
| 2026-05-07 15:41 | 40.94836 | -3.85503 | 14191 ft | 290 kts | 56° |
| 2026-05-07 15:41 | 40.95983 | -3.83319 | 13745 ft | 289 kts | 56° |
| 2026-05-07 15:42 | 40.97041 | -3.81066 | 13278 ft | 290 kts | 68° |
| 2026-05-07 15:42 | 40.97480 | -3.78531 | 13053 ft | 279 kts | 91° |
| 2026-05-07 15:42 | 40.97505 | -3.76003 | 12814 ft | 277 kts | 91° |
| 2026-05-07 15:42 | 40.97528 | -3.73445 | 12545 ft | 277 kts | 93° |
| 2026-05-07 15:43 | 40.97499 | -3.70919 | 12280 ft | 275 kts | 95° |
| 2026-05-07 15:43 | 40.97399 | -3.68391 | 11951 ft | 273 kts | 96° |
| 2026-05-07 15:43 | 40.97171 | -3.65899 | 11602 ft | 270 kts | 107° |
| 2026-05-07 15:43 | 40.96615 | -3.63586 | 11302 ft | 259 kts | 113° |
| 2026-05-07 15:44 | 40.95992 | -3.61372 | 10866 ft | 253 kts | 113° |
| 2026-05-07 15:44 | 40.95166 | -3.59369 | 10403 ft | 242 kts | 138° |
| 2026-05-07 15:44 | 40.93754 | -3.58380 | 10015 ft | 226 kts | 174° |
| 2026-05-07 15:44 | 40.92231 | -3.58204 | 9671 ft | 222 kts | 177° |
| 2026-05-07 15:45 | 40.90716 | -3.57881 | 9268 ft | 219 kts | 174° |
| 2026-05-07 15:45 | 40.89222 | -3.57690 | 9001 ft | 212 kts | 182° |
| 2026-05-07 15:45 | 40.87734 | -3.57742 | 8752 ft | 216 kts | 185° |
| 2026-05-07 15:45 | 40.86261 | -3.57805 | 8503 ft | 213 kts | 184° |
| 2026-05-07 15:46 | 40.83265 | -3.57769 | 8073 ft | 217 kts | 180° |
| 2026-05-07 15:46 | 40.81760 | -3.57715 | 7789 ft | 215 kts | 181° |
| 2026-05-07 15:46 | 40.80279 | -3.57702 | 7465 ft | 216 kts | 180° |
| 2026-05-07 15:47 | 40.78832 | -3.57677 | 7202 ft | 214 kts | 181° |
| 2026-05-07 15:47 | 40.77345 | -3.57672 | 6895 ft | 210 kts | 181° |
| 2026-05-07 15:47 | 40.75936 | -3.57658 | 6638 ft | 198 kts | 180° |
| 2026-05-07 15:47 | 40.74598 | -3.57650 | 6366 ft | 193 kts | 180° |
| 2026-05-07 15:48 | 40.73260 | -3.57638 | 6104 ft | 190 kts | 180° |
| 2026-05-07 15:48 | 40.71955 | -3.57629 | 5884 ft | 188 kts | 180° |
| 2026-05-07 15:48 | 40.70652 | -3.57615 | 5645 ft | 185 kts | 180° |
| 2026-05-07 15:48 | 40.69348 | -3.57622 | 5386 ft | 186 kts | 180° |
| 2026-05-07 15:49 | 40.68062 | -3.57632 | 5133 ft | 187 kts | 180° |
| 2026-05-07 15:49 | 40.66765 | -3.57624 | 4888 ft | 189 kts | 179° |
| 2026-05-07 15:49 | 40.65450 | -3.57606 | 4634 ft | 189 kts | 178° |
| 2026-05-07 15:49 | 40.64155 | -3.57591 | 4380 ft | 179 kts | 178° |
| 2026-05-07 15:50 | 40.62998 | -3.57577 | 4198 ft | 156 kts | 177° |
| 2026-05-07 15:50 | 40.61954 | -3.57563 | 3941 ft | 146 kts | 176° |
| 2026-05-07 15:50 | 40.60936 | -3.57544 | 3722 ft | 147 kts | 177° |
| 2026-05-07 15:50 | 40.59925 | -3.57534 | 3545 ft | 148 kts | 178° |
| 2026-05-07 15:51 | 40.58881 | -3.57528 | 3349 ft | 152 kts | 178° |
| 2026-05-07 15:51 | 40.57823 | -3.57535 | 3135 ft | 153 kts | 178° |
| 2026-05-07 15:51 | 40.56769 | -3.57511 | 3005 ft | 153 kts | 179° |
| 2026-05-07 15:51 | 40.55695 | -3.57488 | 2792 ft | 158 kts | 178° |
| 2026-05-07 15:52 | 40.54598 | -3.57475 | 2546 ft | 156 kts | 179° |
| 2026-05-07 15:52 | 40.53886 | -3.57470 | 2402 ft | 152 kts | 179° |
| 2026-05-07 15:52 | 40.52827 | -3.57468 | 2149 ft | 150 kts | 179° |
| 2026-05-07 15:52 | 40.51792 | -3.57468 | 2012 ft | 147 kts | 179° |
| 2026-05-07 15:53 | 40.50873 | -3.57465 | 1997 ft | 110 kts | 179° |
| 2026-05-07 15:53 | 40.50267 | -3.57459 | 1990 ft | 62 kts | 180° |
| 2026-05-07 15:53 | 40.49901 | -3.57456 | 1990 ft | 42 kts | 180° |
| 2026-05-07 15:53 | 40.49670 | -3.57457 | 1987 ft | 29 kts | 184° |
| 2026-05-07 15:54 | 40.49542 | -3.57545 | 1987 ft | 13 kts | 231° |
| 2026-05-07 15:54 | 40.49526 | -3.57578 | 1986 ft | 0 kts | 241° |
| 2026-05-07 15:55 | 40.49521 | -3.57590 | 1987 ft | 5 kts | 243° |
| 2026-05-07 15:55 | 40.49508 | -3.57646 | 1987 ft | 6 kts | 263° |
| 2026-05-07 15:55 | 40.49507 | -3.57687 | 1989 ft | 3 kts | 270° |
| 2026-05-07 15:56 | 40.49507 | -3.57728 | 1991 ft | 7 kts | 270° |
| 2026-05-07 15:56 | 40.49507 | -3.57808 | 1995 ft | 11 kts | 269° |
| 2026-05-07 15:56 | 40.49507 | -3.57898 | 1998 ft | 9 kts | 269° |
| 2026-05-07 15:56 | 40.49507 | -3.57987 | 2001 ft | 12 kts | 270° |
| 2026-05-07 15:57 | 40.49460 | -3.58059 | 2004 ft | 11 kts | 202° |
| 2026-05-07 15:57 | 40.49388 | -3.58062 | 2004 ft | 11 kts | 168° |
| 2026-05-07 15:57 | 40.49321 | -3.58055 | 2004 ft | 5 kts | 178° |
| 2026-05-07 15:57 | 40.49278 | -3.58054 | 2004 ft | 9 kts | 179° |
| 2026-05-07 15:58 | 40.49214 | -3.58054 | 2004 ft | 10 kts | 180° |
| 2026-05-07 15:58 | 40.49144 | -3.58053 | 2004 ft | 10 kts | 179° |
| 2026-05-07 15:58 | 40.49070 | -3.58053 | 2004 ft | 11 kts | 180° |
| 2026-05-07 15:58 | 40.48991 | -3.58052 | 2004 ft | 12 kts | 180° |
| 2026-05-07 15:59 | 40.48908 | -3.58051 | 2003 ft | 12 kts | 175° |
| 2026-05-07 15:59 | 40.48857 | -3.57944 | 2000 ft | 20 kts | 90° |
| 2026-05-07 15:59 | 40.48859 | -3.57782 | 1994 ft | 17 kts | 89° |
| 2026-05-07 15:59 | 40.48838 | -3.57634 | 1991 ft | 15 kts | 135° |
| 2026-05-07 16:00 | 40.48823 | -3.57621 | 1990 ft | 2 kts | 157° |
| 2026-05-07 16:00 | 40.48799 | -3.57615 | 1991 ft | 3 kts | 169° |
| 2026-05-07 16:00 | 40.48790 | -3.57613 | 1991 ft | 0 kts | 168° |
| 2026-05-07 16:01 | 40.48783 | -3.57613 | 1991 ft | 4 kts | 191° |
| 2026-05-07 16:01 | 40.48763 | -3.57670 | 1992 ft | 11 kts | 264° |
| 2026-05-07 16:01 | 40.48763 | -3.57797 | 1995 ft | 15 kts | 269° |
| 2026-05-07 16:01 | 40.48762 | -3.57918 | 1999 ft | 11 kts | 270° |
| 2026-05-07 16:02 | 40.48762 | -3.58043 | 2003 ft | 16 kts | 270° |
| 2026-05-07 16:02 | 40.48761 | -3.58183 | 2008 ft | 14 kts | 270° |
| 2026-05-07 16:02 | 40.48760 | -3.58292 | 2012 ft | 10 kts | 269° |
| 2026-05-07 16:02 | 40.48761 | -3.58372 | 2015 ft | 7 kts | 270° |
| 2026-05-07 16:03 | 40.48761 | -3.58427 | 2017 ft | 6 kts | 269° |
| 2026-05-07 16:03 | 40.48759 | -3.58564 | 2025 ft | 21 kts | 270° |
| 2026-05-07 16:03 | 40.48759 | -3.58747 | 2023 ft | 20 kts | 269° |
| 2026-05-07 16:03 | 40.48787 | -3.58871 | 2027 ft | 6 kts | 333° |
| 2026-05-07 16:04 | 40.48813 | -3.58877 | 2023 ft | 0 kts | 357° |
| 2026-05-07 16:04 | 40.48815 | -3.58878 | 2023 ft | 0 kts | 339° |
| 2026-05-07 16:04 | 40.48816 | -3.58882 | 2023 ft | 0 kts | 304° |
| 2026-05-07 16:04 | 40.48812 | -3.58898 | 2028 ft | 5 kts | 240° |
| 2026-05-07 16:05 | 40.48797 | -3.58949 | 2025 ft | 4 kts | 267° |
| 2026-05-07 16:05 | 40.48797 | -3.58953 | 2026 ft | 0 kts | 271° |